Time;durP1;ratioP1;P1;durP2;ratioP2;P2;SDS_P1;SDS_P2;PMS_P1;PMS_P2;Temp;Humidity;BMP_temperature;BMP_pressure;BME280_temperature;BME280_humidity;BME280_pressure;Samples;Min_cycle;Max_cycle;Signal;HPM_P1;HPM_P2
2023/04/10 10:16:33;;;;;;;3.77;3.47;;;15.40;94.50;;;;;;6206726;22;1862146;-77
2023/04/10 10:19:20;;;;;;;2.78;2.55;;;15.50;94.50;;;;;;6312066;22;20431;-78
2023/04/10 10:21:46;;;;;;;2.90;2.70;;;15.60;95.00;;;;;;6124904;22;91152;-78
2023/04/10 10:24:14;;;;;;;2.88;2.65;;;15.60;94.20;;;;;;6134547;23;20108;-78
2023/04/10 10:26:42;;;;;;;4.22;3.85;;;15.80;95.30;;;;;;6113043;22;20502;-78
2023/04/10 10:29:12;;;;;;;3.22;3.03;;;15.90;94.20;;;;;;6031656;23;84836;-78
2023/04/10 10:31:38;;;;;;;;;;;15.90;93.50;;;;;;5949826;22;70716;-80
2023/04/10 10:36:39;;;;;;;2.85;2.58;;;16.40;93.90;;;;;;6241369;23;20075;-78
2023/04/10 10:39:33;;;;;;;3.28;2.88;;;16.40;94.10;;;;;;6151027;22;63779;-77
2023/04/10 10:42:14;;;;;;;6.30;3.08;;;16.70;93.30;;;;;;6126008;22;20088;-75
2023/04/10 10:44:46;;;;;;;3.13;2.92;;;16.70;96.40;;;;;;6196428;22;20402;-76
2023/04/10 10:47:23;;;;;;;3.00;2.60;;;16.70;93.30;;;;;;6302258;22;20037;-75
2023/04/10 10:49:57;;;;;;;3.88;3.58;;;16.90;93.30;;;;;;6345886;22;20147;-77
2023/04/10 10:52:42;;;;;;;2.65;2.45;;;16.80;92.30;;;;;;6305006;22;20006;-76
2023/04/10 10:55:23;;;;;;;4.82;3.63;;;17.00;92.80;;;;;;6305806;22;20321;-75
2023/04/10 10:57:51;;;;;;;3.80;3.50;;;16.90;92.20;;;;;;6317931;22;20033;-76
2023/04/10 11:00:17;;;;;;;2.17;2.03;;;17.30;92.40;;;;;;6280978;22;20295;-76
2023/04/10 11:02:43;;;;;;;2.95;2.70;;;17.50;92.60;;;;;;6306080;22;20013;-76
2023/04/10 11:05:09;;;;;;;2.95;2.67;;;17.40;92.50;;;;;;6344853;22;20089;-76
2023/04/10 11:08:00;;;;;;;2.40;2.20;;;17.50;91.90;;;;;;6345769;22;20060;-75
2023/04/10 11:11:05;;;;;;;2.25;2.13;;;17.50;91.90;;;;;;6307172;22;20002;-76
2023/04/10 11:13:32;;;;;;;2.50;2.25;;;17.40;91.40;;;;;;6246015;22;20002;-75
2023/04/10 11:16:00;;;;;;;3.08;2.88;;;17.10;92.30;;;;;;6280200;22;20015;-75
2023/04/10 11:18:44;;;;;;;2.45;2.15;;;17.00;92.50;;;;;;6307589;22;20009;-76
2023/04/10 11:21:14;;;;;;;2.63;2.40;;;17.20;91.60;;;;;;6282400;22;20053;-76
2023/04/10 11:23:51;;;;;;;2.40;1.75;;;17.90;91.80;;;;;;6281524;22;20509;-76
2023/04/10 11:26:39;;;;;;;2.70;2.50;;;18.50;90.90;;;;;;6311916;22;20396;-75
2023/04/10 11:29:17;;;;;;;2.53;1.85;;;18.70;89.20;;;;;;6306798;22;20014;-75
2023/04/10 11:32:01;;;;;;;2.88;2.47;;;18.70;89.10;;;;;;6278848;22;20010;-75
2023/04/10 11:34:29;;;;;;;4.50;2.17;;;18.60;90.10;;;;;;6280984;22;20295;-75
2023/04/10 11:36:55;;;;;;;1.52;1.42;;;18.90;89.30;;;;;;6344850;22;20011;-76
2023/04/10 11:39:21;;;;;;;8.75;1.73;;;18.30;88.40;;;;;;6281708;22;20090;-76
2023/04/10 11:41:51;;;;;;;2.28;2.08;;;17.90;88.60;;;;;;6256116;22;20456;-76
2023/04/10 11:44:25;;;;;;;3.45;2.50;;;18.00;88.20;;;;;;6281430;22;20002;-76
2023/04/10 11:46:51;;;;;;;2.85;1.80;;;18.10;88.80;;;;;;6306154;22;19995;-76
2023/04/10 11:49:22;;;;;;;2.22;2.13;;;18.40;87.90;;;;;;6282180;22;19991;-76
2023/04/10 11:51:49;;;;;;;2.33;2.13;;;18.40;87.40;;;;;;6307466;22;20010;-75
2023/04/10 11:54:18;;;;;;;1.80;1.70;;;18.20;87.60;;;;;;6281399;22;20002;-75
2023/04/10 11:56:55;;;;;;;2.47;2.28;;;18.40;86.70;;;;;;6316969;22;20037;-75
2023/04/10 11:59:22;;;;;;;2.05;1.75;;;18.40;87.40;;;;;;6307494;22;20002;-75
2023/04/10 12:01:52;;;;;;;2.03;1.90;;;18.70;87.20;;;;;;6307142;22;19998;-76
2023/04/10 12:04:22;;;;;;;2.17;1.98;;;18.40;86.70;;;;;;6307039;22;19999;-75
2023/04/10 12:06:49;;;;;;;;;;;18.20;87.80;;;;;;6291923;22;20007;-75
2023/04/10 12:09:17;;;;;;;1.08;1.08;;;18.30;88.20;;;;;;6345602;22;19898;-75
2023/04/10 12:12:15;;;;;;;1.70;1.58;;;18.40;88.70;;;;;;6317969;22;20048;-75
2023/04/10 12:14:42;;;;;;;5.13;1.98;;;17.90;87.70;;;;;;6256267;22;20033;-75
2023/04/10 12:17:09;;;;;;;3.35;2.10;;;18.30;88.10;;;;;;6280871;22;20011;-75
2023/04/10 12:19:37;;;;;;;4.65;2.42;;;18.20;87.30;;;;;;6345752;22;19999;-76
2023/04/10 12:22:03;;;;;;;3.63;2.65;;;18.10;88.20;;;;;;6346188;22;20009;-75
2023/04/10 12:24:45;;;;;;;1.85;1.75;;;18.30;92.30;;;;;;6346239;22;20048;-75
2023/04/10 12:27:27;;;;;;;1.88;1.75;;;18.10;87.30;;;;;;6319055;22;19999;-76
2023/04/10 12:29:56;;;;;;;4.55;2.70;;;18.10;87.50;;;;;;6308498;22;20002;-76
2023/04/10 12:32:25;;;;;;;2.53;2.33;;;18.30;87.30;;;;;;6308325;22;20002;-73
2023/04/10 12:35:00;;;;;;;2.35;2.15;;;18.40;87.50;;;;;;6042401;22;74225;-75
2023/04/10 12:37:45;;;;;;;3.33;3.03;;;18.20;88.00;;;;;;6316727;22;20006;-76
2023/04/10 12:40:12;;;;;;;2.30;2.15;;;18.90;91.80;;;;;;6308712;22;20022;-74
2023/04/10 12:42:42;;;;;;;3.25;2.55;;;18.50;87.10;;;;;;6282332;22;20417;-75
2023/04/10 12:50:51;;;;;;;2.75;1.73;;;18.30;86.60;;;;;;6236400;22;20030;-75
2023/04/10 12:53:17;;;;;;;1.98;1.88;;;18.20;86.40;;;;;;6248766;22;20307;-79
2023/04/10 12:55:58;;;;;;;1.67;1.58;;;18.10;86.90;;;;;;6261897;22;20008;-78
2023/04/10 12:58:27;;;;;;;1.83;1.70;;;18.50;86.70;;;;;;6315545;22;19996;-75
2023/04/10 13:00:57;;;;;;;2.00;1.83;;;18.60;86.80;;;;;;6276209;22;20084;-76
2023/04/10 13:03:23;;;;;;;1.38;1.27;;;18.60;86.60;;;;;;6248436;22;20018;-76
2023/04/10 13:05:49;;;;;;;1.60;1.50;;;18.30;85.90;;;;;;6221143;22;20007;-76
2023/04/10 13:08:15;;;;;;;3.40;2.30;;;18.70;87.40;;;;;;6251765;22;20010;-77
2023/04/10 13:10:42;;;;;;;3.75;2.38;;;18.80;85.80;;;;;;6262515;22;19999;-76
2023/04/10 13:13:11;;;;;;;2.47;2.28;;;18.30;85.00;;;;;;6286416;22;20298;-75
2023/04/10 13:15:38;;;;;;;3.08;2.20;;;18.20;85.50;;;;;;6315093;22;20007;-76
2023/04/10 13:18:07;;;;;;;1.58;1.48;;;18.30;86.60;;;;;;6276927;22;20511;-78
2023/04/10 13:20:34;;;;;;;2.33;1.92;;;18.20;86.80;;;;;;6262746;22;20005;-76
2023/04/10 13:23:03;;;;;;;2.28;2.17;;;18.10;87.10;;;;;;6316467;22;20397;-76
2023/04/10 13:25:32;;;;;;;1.52;1.42;;;18.30;87.90;;;;;;6254640;22;20082;-75
2023/04/10 13:27:59;;;;;;;3.40;1.77;;;18.30;87.50;;;;;;6290139;22;20034;-77
2023/04/10 13:30:25;;;;;;;2.28;2.08;;;17.90;87.90;;;;;;6278138;22;19999;-77
2023/04/10 13:32:51;;;;;;;2.90;2.17;;;18.00;87.50;;;;;;6316817;22;20082;-75
2023/04/10 13:35:17;;;;;;;2.05;1.85;;;17.90;87.40;;;;;;6287703;22;20473;-73
2023/04/10 13:37:44;;;;;;;4.00;1.90;;;17.90;87.40;;;;;;6279043;22;20094;-71
2023/04/10 13:40:10;;;;;;;1.92;1.73;;;17.80;87.10;;;;;;6317467;22;20003;-73
2023/04/10 13:42:36;;;;;;;3.78;1.95;;;17.70;88.80;;;;;;6290086;22;20080;-73
2023/04/10 13:45:03;;;;;;;1.45;1.35;;;17.80;89.00;;;;;;6289356;22;20007;-70
2023/04/10 13:47:28;;;;;;;1.92;1.77;;;17.70;88.80;;;;;;6254669;22;20031;-73
2023/04/10 13:49:54;;;;;;;1.70;1.58;;;17.80;89.30;;;;;;6289481;22;20056;-72
2023/04/10 13:52:20;;;;;;;1.90;1.80;;;17.90;88.10;;;;;;6280304;22;20011;-73
2023/04/10 13:54:46;;;;;;;1.65;1.45;;;17.80;88.50;;;;;;6316736;22;19999;-71
2023/04/10 13:57:12;;;;;;;2.10;1.55;;;17.70;89.00;;;;;;6316269;22;20123;-71
2023/04/10 13:59:37;;;;;;;1.70;1.60;;;17.70;88.50;;;;;;6289603;22;20411;-71
2023/04/10 14:02:03;;;;;;;1.60;1.58;;;17.80;88.10;;;;;;6277398;22;20361;-72
2023/04/10 14:04:29;;;;;;;1.60;1.50;;;17.90;88.70;;;;;;6227342;22;19995;-71
2023/04/10 14:06:58;;;;;;;1.52;1.23;;;18.00;87.80;;;;;;6317003;22;20058;-72
2023/04/10 14:09:24;;;;;;;2.53;2.33;;;18.20;88.60;;;;;;6317325;22;19998;-71
2023/04/10 14:11:50;;;;;;;1.17;1.15;;;18.20;87.70;;;;;;6278836;22;20090;-71
2023/04/10 14:14:22;;;;;;;2.15;1.38;;;18.00;87.70;;;;;;6317264;22;20318;-71
2023/04/10 14:16:48;;;;;;;2.43;2.23;;;17.90;87.80;;;;;;6314749;22;20016;-71
2023/04/10 14:19:14;;;;;;;1.50;0.93;;;18.00;88.30;;;;;;6287841;22;19991;-71
2023/04/10 14:21:42;;;;;;;2.33;2.13;;;17.90;88.30;;;;;;6275843;22;20011;-71
2023/04/10 14:24:08;;;;;;;1.88;1.77;;;17.70;87.70;;;;;;6316328;22;20083;-71
2023/04/10 14:26:34;;;;;;;1.45;1.35;;;17.50;88.50;;;;;;6315753;22;19999;-71
2023/04/10 14:29:00;;;;;;;1.63;1.52;;;17.40;90.00;;;;;;6289759;22;20460;-71
2023/04/10 14:31:26;;;;;;;1.13;1.02;;;17.30;90.00;;;;;;6315900;22;20000;-71
2023/04/10 14:33:52;;;;;;;1.60;1.50;;;17.20;90.00;;;;;;6279184;22;19999;-71
2023/04/10 14:36:18;;;;;;;2.33;2.13;;;17.10;90.70;;;;;;6316273;22;20442;-71
2023/04/10 14:38:43;;;;;;;3.10;2.63;;;17.00;91.90;;;;;;6316728;22;20022;-71
2023/04/10 14:41:10;;;;;;;2.17;1.98;;;16.60;91.90;;;;;;6316785;22;19995;-71
2023/04/10 14:43:36;;;;;;;2.78;2.17;;;16.40;93.80;;;;;;6278950;22;19995;-71
2023/04/10 14:46:02;;;;;;;2.47;2.08;;;16.20;94.80;;;;;;6303971;22;20012;-71
2023/04/10 14:48:28;;;;;;;2.05;1.77;;;15.90;95.70;;;;;;6278768;22;19991;-72
2023/04/10 14:50:57;;;;;;;2.33;1.98;;;15.70;96.30;;;;;;6311635;22;20330;-72
2023/04/10 14:53:23;;;;;;;2.07;1.90;;;15.40;98.10;;;;;;6315158;22;19995;-71
2023/04/10 14:55:50;;;;;;;3.63;1.73;;;15.20;98.00;;;;;;6304138;22;20324;-72
2023/04/10 14:58:15;;;;;;;1.98;1.80;;;15.10;99.10;;;;;;6279032;22;19999;-72
2023/04/10 15:00:42;;;;;;;4.45;2.38;;;14.90;99.90;;;;;;6289210;22;20484;-72
2023/04/10 15:03:08;;;;;;;2.28;2.08;;;14.80;99.90;;;;;;6316251;22;20045;-73
2023/04/10 15:05:34;;;;;;;8.98;2.35;;;14.70;99.90;;;;;;6303010;22;20426;-72
2023/04/10 15:08:00;;;;;;;1.63;1.52;;;14.60;99.90;;;;;;6316041;22;19992;-73
2023/04/10 15:10:29;;;;;;;3.03;1.50;;;14.60;99.90;;;;;;6313695;22;20006;-73
2023/04/10 15:12:55;;;;;;;1.35;1.25;;;14.60;99.90;;;;;;6315744;22;19995;-73
2023/04/10 15:15:21;;;;;;;1.23;1.20;;;14.70;99.20;;;;;;6315511;22;20013;-73
2023/04/10 15:17:47;;;;;;;2.00;1.60;;;14.80;99.60;;;;;;6278543;22;19995;-73
2023/04/10 15:20:13;;;;;;;1.77;1.67;;;14.90;99.60;;;;;;6278282;22;20049;-72
2023/04/10 15:22:41;;;;;;;4.00;2.42;;;14.90;99.70;;;;;;6316054;22;19995;-73
2023/04/10 15:25:10;;;;;;;3.35;1.95;;;14.90;99.90;;;;;;6315790;22;20465;-72
2023/04/10 15:27:37;;;;;;;2.88;2.38;;;14.90;99.90;;;;;;6316295;22;20023;-73
2023/04/10 15:30:04;;;;;;;4.20;2.45;;;14.90;99.90;;;;;;6287866;22;19995;-73
2023/04/10 15:32:30;;;;;;;4.95;3.08;;;14.90;99.90;;;;;;6277979;22;20068;-73
2023/04/10 15:34:56;;;;;;;2.53;2.33;;;15.00;99.90;;;;;;6316151;22;19999;-73
2023/04/10 15:37:24;;;;;;;2.53;2.33;;;15.00;99.90;;;;;;6288646;22;20046;-74
2023/04/10 15:39:50;;;;;;;2.58;2.42;;;15.10;99.90;;;;;;6315762;22;19995;-73
2023/04/10 15:42:16;;;;;;;3.35;2.83;;;15.20;99.90;;;;;;6278098;22;20045;-73
2023/04/10 15:44:45;;;;;;;2.30;1.83;;;15.20;99.90;;;;;;6252689;22;19999;-73
2023/04/10 15:47:14;;;;;;;2.72;1.85;;;15.30;99.90;;;;;;6277983;22;19999;-73
2023/04/10 15:49:40;;;;;;;2.70;2.53;;;15.20;99.80;;;;;;6278643;22;20482;-73
2023/04/10 15:52:05;;;;;;;2.38;2.17;;;15.30;99.20;;;;;;6277966;22;20035;-73
2023/04/10 15:54:34;;;;;;;1.13;1.10;;;15.30;99.10;;;;;;6288168;22;19999;-73
2023/04/10 15:57:00;;;;;;;1.80;1.70;;;15.30;99.30;;;;;;6316091;22;20003;-73
2023/04/10 15:59:26;;;;;;;2.40;1.92;;;15.30;99.30;;;;;;6278393;22;20076;-73
2023/04/10 16:01:52;;;;;;;1.70;1.60;;;15.30;99.90;;;;;;6315628;22;20429;-73
2023/04/10 16:04:18;;;;;;;2.25;1.55;;;15.10;99.90;;;;;;6252485;22;20004;-74
2023/04/10 16:06:44;;;;;;;1.67;1.55;;;15.00;99.80;;;;;;6277080;22;20057;-73
2023/04/10 16:09:11;;;;;;;2.40;2.20;;;15.00;99.90;;;;;;6276763;22;20010;-73
2023/04/10 16:11:37;;;;;;;5.22;3.28;;;15.00;99.90;;;;;;6314555;22;19995;-73
2023/04/10 16:14:03;;;;;;;5.47;2.15;;;15.00;99.90;;;;;;6314700;22;20598;-73
2023/04/10 16:16:29;;;;;;;2.90;2.70;;;15.10;99.70;;;;;;6286745;22;20010;-73
2023/04/10 16:18:56;;;;;;;1.88;1.75;;;15.20;99.90;;;;;;6276746;22;19999;-73
2023/04/10 16:21:22;;;;;;;2.55;2.30;;;15.20;99.50;;;;;;6277699;22;20512;-73
2023/04/10 16:23:48;;;;;;;2.90;2.47;;;15.20;98.80;;;;;;6286346;22;20006;-73
2023/04/10 16:26:14;;;;;;;2.05;1.38;;;15.20;98.90;;;;;;6310869;22;20018;-73
2023/04/10 16:28:40;;;;;;;2.78;0.85;;;15.20;99.10;;;;;;6286453;22;20007;-73
2023/04/10 16:31:06;;;;;;;1.90;1.38;;;15.10;99.90;;;;;;6276271;22;20087;-73
2023/04/10 16:33:31;;;;;;;1.77;1.42;;;15.10;99.90;;;;;;6314415;22;20007;-73
2023/04/10 16:35:57;;;;;;;2.22;1.30;;;15.00;99.90;;;;;;6250032;22;20112;-73
2023/04/10 16:38:23;;;;;;;1.40;1.20;;;15.00;99.90;;;;;;6275855;22;19999;-73
2023/04/10 16:40:50;;;;;;;1.98;1.70;;;14.90;99.90;;;;;;6312672;22;19995;-73
2023/04/10 16:43:16;;;;;;;1.92;1.83;;;14.90;99.90;;;;;;6286560;22;20006;-73
2023/04/10 16:45:42;;;;;;;1.70;1.60;;;14.80;99.90;;;;;;6248258;22;20007;-73
2023/04/10 16:48:08;;;;;;;1.42;1.00;;;14.70;99.90;;;;;;6267709;22;19995;-73
2023/04/10 16:50:35;;;;;;;3.00;1.90;;;14.70;99.90;;;;;;6304690;22;20007;-73
2023/04/10 16:53:00;;;;;;;2.25;2.05;;;14.70;99.90;;;;;;6312028;22;20321;-73
2023/04/10 16:55:26;;;;;;;2.53;2.03;;;14.70;99.90;;;;;;6314401;22;19995;-73
2023/04/10 16:57:52;;;;;;;1.88;1.67;;;14.70;99.90;;;;;;6288271;22;20003;-73
2023/04/10 17:00:18;;;;;;;2.90;2.03;;;14.60;99.90;;;;;;6312578;22;19995;-72
2023/04/10 17:02:45;;;;;;;2.38;1.50;;;14.60;99.90;;;;;;6288655;22;20009;-73
2023/04/10 17:05:12;;;;;;;1.88;1.45;;;14.60;99.90;;;;;;6288137;22;19996;-72
2023/04/10 17:07:38;;;;;;;3.22;1.98;;;14.60;99.90;;;;;;6277755;22;20434;-73
2023/04/10 17:10:04;;;;;;;2.03;1.85;;;14.60;99.90;;;;;;6253053;22;20003;-72
2023/04/10 17:12:30;;;;;;;2.78;1.98;;;14.60;99.90;;;;;;6303896;22;20429;-73
2023/04/10 17:14:55;;;;;;;1.95;1.83;;;14.60;99.90;;;;;;6288359;22;19995;-72
2023/04/10 17:17:21;;;;;;;2.30;1.67;;;14.40;99.90;;;;;;6274547;22;20023;-72
2023/04/10 17:19:47;;;;;;;4.72;2.83;;;14.30;99.90;;;;;;6313648;22;20399;-72
2023/04/10 17:22:16;;;;;;;3.13;1.83;;;14.10;99.90;;;;;;6300852;22;20007;-72
2023/04/10 17:24:43;;;;;;;2.38;2.17;;;13.80;99.90;;;;;;6288333;22;20003;-72
2023/04/10 17:27:10;;;;;;;2.38;2.15;;;13.60;99.90;;;;;;6285301;22;20372;-72
2023/04/10 17:29:39;;;;;;;3.10;1.77;;;13.50;99.90;;;;;;6311393;22;20174;-73
2023/04/10 17:32:06;;;;;;;;;;;13.40;99.90;;;;;;6312910;22;20003;-73
2023/04/10 17:34:32;;;;;;;2.50;2.33;;;13.20;99.90;;;;;;6275856;22;19903;-72
2023/04/10 17:36:59;;;;;;;8.82;4.25;;;13.10;99.90;;;;;;6296441;22;20102;-72
2023/04/10 17:39:25;;;;;;;4.22;2.97;;;12.90;99.90;;;;;;6247596;22;19995;-71
2023/04/10 17:41:52;;;;;;;3.20;2.95;;;12.70;99.90;;;;;;6312405;22;20006;-71
2023/04/10 17:44:18;;;;;;;4.43;4.03;;;12.50;99.90;;;;;;6286708;22;20098;-71
2023/04/10 17:46:45;;;;;;;3.58;3.28;;;12.40;99.90;;;;;;6312061;22;20314;-70
2023/04/10 17:49:11;;;;;;;3.22;2.92;;;12.30;99.90;;;;;;6284592;22;20330;-70
2023/04/10 17:51:39;;;;;;;3.80;3.55;;;12.20;99.90;;;;;;6307239;22;20008;-70
2023/04/10 17:54:05;;;;;;;2.08;1.98;;;12.20;99.90;;;;;;6310515;22;20001;-72
2023/04/10 17:56:30;;;;;;;5.28;3.42;;;12.10;99.90;;;;;;6298073;22;20023;-70
2023/04/10 17:58:59;;;;;;;4.88;3.10;;;12.10;99.90;;;;;;6315358;22;20113;-70
2023/04/10 18:01:28;;;;;;;5.80;1.80;;;12.00;99.90;;;;;;6315210;22;20297;-71
2023/04/10 18:03:57;;;;;;;3.97;3.57;;;12.00;99.90;;;;;;6288098;22;20330;-71
2023/04/10 18:06:25;;;;;;;2.33;2.10;;;12.00;99.90;;;;;;6314027;22;20257;-71
2023/04/10 18:08:51;;;;;;;6.38;2.10;;;11.90;99.90;;;;;;6313206;22;20003;-70
2023/04/10 18:11:17;;;;;;;2.03;1.73;;;11.80;99.90;;;;;;6226592;22;20064;-70
2023/04/10 18:13:45;;;;;;;1.95;1.50;;;11.80;99.90;;;;;;6276485;22;20026;-71
2023/04/10 18:16:11;;;;;;;2.05;1.95;;;11.80;99.90;;;;;;6286318;22;20011;-70
2023/04/10 18:18:40;;;;;;;2.13;1.15;;;11.70;99.90;;;;;;6314995;22;20410;-71
2023/04/10 18:21:07;;;;;;;2.40;2.15;;;11.70;99.90;;;;;;6283942;22;20334;-70
2023/04/10 18:23:33;;;;;;;2.20;2.10;;;11.70;99.90;;;;;;6303451;22;20329;-71
2023/04/10 18:25:59;;;;;;;3.20;2.80;;;11.60;99.90;;;;;;6274577;22;20035;-71
2023/04/10 18:28:25;;;;;;;4.28;2.63;;;11.60;99.90;;;;;;6314076;22;20070;-72
2023/04/10 18:30:55;;;;;;;2.85;2.17;;;11.50;99.90;;;;;;6285475;22;20081;-72
2023/04/10 18:33:25;;;;;;;7.15;6.45;;;11.40;99.90;;;;;;6314307;22;20014;-71
2023/04/10 18:35:56;;;;;;;7.05;2.58;;;11.40;99.90;;;;;;6313115;22;20019;-71
2023/04/10 18:38:22;;;;;;;1.70;1.60;;;11.30;99.90;;;;;;6287148;22;19999;-71
2023/04/10 18:40:48;;;;;;;4.43;3.15;;;11.30;99.90;;;;;;6286432;22;19995;-71
2023/04/10 18:43:14;;;;;;;2.22;2.13;;;11.30;99.90;;;;;;6314710;22;20496;-71
2023/04/10 18:45:41;;;;;;;2.90;2.03;;;11.20;99.90;;;;;;6276365;22;20505;-71
2023/04/10 18:48:07;;;;;;;2.20;2.03;;;11.20;99.90;;;;;;6276474;22;20031;-72
2023/04/10 18:50:34;;;;;;;6.43;4.43;;;11.20;99.90;;;;;;6311400;22;19995;-73
2023/04/10 18:53:00;;;;;;;6.57;4.68;;;11.20;99.90;;;;;;6314767;22;20007;-74
2023/04/10 18:55:25;;;;;;;2.30;2.10;;;11.10;99.90;;;;;;6283372;22;20045;-73
2023/04/10 18:57:51;;;;;;;1.77;1.58;;;11.10;99.90;;;;;;6314304;22;20065;-72
2023/04/10 19:00:17;;;;;;;1.73;1.63;;;11.20;99.90;;;;;;6313862;22;20410;-72
2023/04/10 19:02:43;;;;;;;3.30;2.47;;;11.20;99.90;;;;;;6313471;22;19999;-72
2023/04/10 19:05:13;;;;;;;3.50;3.20;;;11.10;99.90;;;;;;6310794;22;19999;-72
2023/04/10 19:07:41;;;;;;;2.53;2.33;;;11.10;99.90;;;;;;6274249;22;19999;-72
2023/04/10 19:10:08;;;;;;;2.50;2.30;;;11.10;99.90;;;;;;6249789;22;20076;-72
2023/04/10 19:12:34;;;;;;;3.15;1.80;;;11.10;99.90;;;;;;6285258;22;20030;-72
2023/04/10 19:15:00;;;;;;;2.25;1.70;;;11.10;99.90;;;;;;6300778;22;19999;-73
2023/04/10 19:17:26;;;;;;;5.95;2.08;;;11.10;99.90;;;;;;6283749;22;20499;-72
2023/04/10 19:19:54;;;;;;;3.03;2.47;;;11.10;99.90;;;;;;6311333;22;20633;-72
2023/04/10 19:22:20;;;;;;;4.30;1.48;;;11.00;99.90;;;;;;6303175;22;20068;-72
2023/04/10 19:24:45;;;;;;;2.30;1.92;;;11.00;99.90;;;;;;6274734;22;20426;-72
2023/04/10 19:27:11;;;;;;;2.22;1.70;;;11.00;99.90;;;;;;6310061;22;20014;-72
2023/04/10 19:29:37;;;;;;;2.05;1.85;;;11.00;99.90;;;;;;6310284;22;20030;-71
2023/04/10 19:32:03;;;;;;;1.95;1.75;;;10.90;99.90;;;;;;6284081;22;20309;-72
2023/04/10 19:34:29;;;;;;;2.83;2.55;;;10.90;99.90;;;;;;6312599;22;20053;-72
2023/04/10 19:36:54;;;;;;;4.15;2.28;;;10.90;99.90;;;;;;6311325;22;20335;-72
2023/04/10 19:39:20;;;;;;;2.60;1.75;;;10.90;99.90;;;;;;6259660;22;20080;-72
2023/04/10 19:41:46;;;;;;;1.00;0.95;;;10.90;99.90;;;;;;6313851;22;19999;-72
2023/04/10 19:44:12;;;;;;;1.05;1.05;;;10.90;99.90;;;;;;6314590;22;20322;-72
2023/04/10 19:46:38;;;;;;;0.90;0.85;;;11.00;99.90;;;;;;6312206;22;20010;-72
2023/04/10 19:49:03;;;;;;;1.50;1.40;;;10.90;99.90;;;;;;6314478;22;19995;-72
2023/04/10 19:51:31;;;;;;;2.03;0.80;;;10.90;99.90;;;;;;6275581;22;20331;-73
2023/04/10 19:53:57;;;;;;;3.08;1.13;;;10.90;99.90;;;;;;6287597;22;20002;-72
2023/04/10 19:56:23;;;;;;;1.02;1.02;;;10.80;99.90;;;;;;6313506;22;20082;-72
2023/04/10 19:58:49;;;;;;;2.60;0.88;;;10.80;99.90;;;;;;6277057;22;19995;-72
2023/04/10 20:01:15;;;;;;;3.90;1.25;;;10.80;99.90;;;;;;6314497;22;19999;-72
2023/04/10 20:03:40;;;;;;;1.83;1.17;;;10.80;99.90;;;;;;6314505;22;20099;-73
2023/04/10 20:06:07;;;;;;;4.15;1.15;;;10.80;99.90;;;;;;6276334;22;20003;-72
2023/04/10 20:08:33;;;;;;;1.65;1.20;;;10.80;99.90;;;;;;6286884;22;20011;-72
2023/04/10 20:11:00;;;;;;;0.80;0.80;;;10.80;99.90;;;;;;6302020;22;20052;-73
2023/04/10 20:13:26;;;;;;;2.88;1.52;;;10.80;99.90;;;;;;6315107;22;20002;-73
2023/04/10 20:15:52;;;;;;;2.00;1.90;;;10.70;99.90;;;;;;6275126;22;20971;-72
2023/04/10 20:18:18;;;;;;;2.50;1.23;;;10.70;99.90;;;;;;6313192;22;19995;-73
2023/04/10 20:20:44;;;;;;;2.50;1.05;;;10.70;99.90;;;;;;6310330;22;20003;-73
2023/04/10 20:23:11;;;;;;;2.03;1.17;;;10.60;99.90;;;;;;6277409;22;20414;-73
2023/04/10 20:25:37;;;;;;;2.45;2.20;;;10.70;99.90;;;;;;6312110;22;20049;-72
2023/04/10 20:28:03;;;;;;;2.53;2.38;;;10.60;99.90;;;;;;6276352;22;20444;-72
2023/04/10 20:30:29;;;;;;;8.88;1.67;;;10.60;99.90;;;;;;6277428;22;19995;-72
2023/04/10 20:32:56;;;;;;;2.35;1.77;;;10.60;99.90;;;;;;6287979;22;19999;-72
2023/04/10 20:35:22;;;;;;;5.35;1.83;;;10.60;99.90;;;;;;6287256;22;20004;-72
2023/04/10 20:37:47;;;;;;;2.53;1.77;;;10.60;99.90;;;;;;6286669;22;19995;-72
2023/04/10 20:40:13;;;;;;;2.30;1.88;;;10.60;99.90;;;;;;6315018;22;20074;-72
2023/04/10 20:42:41;;;;;;;7.47;2.05;;;10.50;99.90;;;;;;6312989;22;20783;-72
2023/04/10 20:45:08;;;;;;;1.48;1.20;;;10.50;99.90;;;;;;6286517;22;20017;-73
2023/04/10 20:47:34;;;;;;;3.30;1.52;;;10.50;99.90;;;;;;6314396;22;19995;-73
2023/04/10 20:50:00;;;;;;;5.25;1.50;;;10.50;99.90;;;;;;6277351;22;20457;-73
2023/04/10 20:52:26;;;;;;;2.40;2.17;;;10.50;99.90;;;;;;6276103;22;20007;-73
2023/04/10 20:54:52;;;;;;;6.40;1.67;;;10.50;99.90;;;;;;6287766;22;20009;-73
2023/04/10 20:57:18;;;;;;;3.00;1.75;;;10.50;99.90;;;;;;6314985;22;20411;-73
2023/04/10 20:59:44;;;;;;;1.75;1.25;;;10.50;99.90;;;;;;6315799;22;20326;-73
2023/04/10 21:02:10;;;;;;;3.58;2.10;;;10.50;99.90;;;;;;6278124;22;20437;-72
2023/04/10 21:04:35;;;;;;;1.38;1.05;;;10.50;99.90;;;;;;6302542;22;20007;-74
2023/04/10 21:07:01;;;;;;;1.10;0.82;;;10.50;99.90;;;;;;6315203;22;19995;-73
2023/04/10 21:09:27;;;;;;;3.58;1.58;;;10.50;99.90;;;;;;6315538;22;20419;-72
2023/04/10 21:11:53;;;;;;;2.42;1.67;;;10.40;99.90;;;;;;6313434;22;19995;-73
2023/04/10 21:14:18;;;;;;;2.22;1.20;;;10.40;99.90;;;;;;6313186;22;20011;-73
2023/04/10 21:16:44;;;;;;;4.97;1.90;;;10.30;99.90;;;;;;6286835;22;20034;-72
2023/04/10 21:19:11;;;;;;;6.15;2.90;;;10.20;99.90;;;;;;6315569;22;20357;-72
2023/04/10 21:21:36;;;;;;;3.38;1.35;;;10.10;99.90;;;;;;6281639;22;19996;-73
2023/04/10 21:24:02;;;;;;;2.42;1.90;;;10.00;99.90;;;;;;6287572;22;20007;-73
2023/04/10 21:26:29;;;;;;;5.22;2.13;;;10.00;99.90;;;;;;6287501;22;20430;-73
2023/04/10 21:28:55;;;;;;;2.08;1.75;;;9.90;99.90;;;;;;6313520;22;19999;-74
2023/04/10 21:31:20;;;;;;;2.83;1.83;;;9.90;99.90;;;;;;6286623;22;20021;-73
2023/04/10 21:33:46;;;;;;;2.78;2.58;;;9.80;99.90;;;;;;6313765;22;19999;-73
2023/04/10 21:36:13;;;;;;;4.70;3.25;;;9.70;99.90;;;;;;6249847;22;20011;-74
2023/04/10 21:38:39;;;;;;;2.00;1.55;;;9.70;99.90;;;;;;6275643;22;20026;-73
2023/04/10 21:41:05;;;;;;;2.38;2.25;;;9.70;99.90;;;;;;6288921;22;19995;-73
2023/04/10 21:43:31;;;;;;;2.63;2.42;;;9.70;99.90;;;;;;6254469;22;20161;-73
2023/04/10 21:45:56;;;;;;;4.13;2.50;;;9.70;99.90;;;;;;6316995;22;20058;-73
2023/04/10 21:48:22;;;;;;;7.00;2.05;;;9.80;99.90;;;;;;6317037;22;20060;-72
2023/04/10 21:50:49;;;;;;;3.60;1.65;;;9.80;99.90;;;;;;6278453;22;19996;-73
2023/04/10 21:53:15;;;;;;;5.72;2.95;;;9.90;99.90;;;;;;6317516;22;19995;-73
2023/04/10 21:55:41;;;;;;;4.00;1.30;;;10.00;99.90;;;;;;6278926;22;20043;-73
2023/04/10 21:58:07;;;;;;;4.20;1.42;;;10.00;99.90;;;;;;6279896;22;20011;-73
2023/04/10 22:00:33;;;;;;;3.95;1.90;;;10.00;99.90;;;;;;6289765;22;20000;-73
2023/04/10 22:02:58;;;;;;;4.97;2.47;;;10.00;99.90;;;;;;6317427;22;19995;-74
2023/04/10 22:05:26;;;;;;;2.05;1.58;;;9.90;99.90;;;;;;6317063;22;20090;-72
2023/04/10 22:07:52;;;;;;;5.60;1.88;;;9.90;99.90;;;;;;6316823;22;20057;-73
2023/04/10 22:10:18;;;;;;;5.50;2.58;;;9.90;99.90;;;;;;6288442;22;19992;-73
2023/04/10 22:12:44;;;;;;;9.30;2.90;;;9.90;99.90;;;;;;6317350;22;19999;-73
2023/04/10 22:15:10;;;;;;;7.85;1.73;;;9.90;99.90;;;;;;6317074;22;19998;-73
2023/04/10 22:17:36;;;;;;;10.65;3.05;;;10.00;99.90;;;;;;6279225;22;20337;-73
2023/04/10 22:20:02;;;;;;;5.85;2.70;;;10.10;99.90;;;;;;6317409;22;20314;-73
2023/04/10 22:22:28;;;;;;;2.03;1.63;;;10.20;99.90;;;;;;6306612;22;20007;-73
2023/04/10 22:24:54;;;;;;;1.25;1.08;;;10.20;99.90;;;;;;6317047;22;20079;-72
2023/04/10 22:27:21;;;;;;;5.45;2.13;;;10.30;99.90;;;;;;6253077;22;20007;-73
2023/04/10 22:29:47;;;;;;;2.22;0.95;;;10.30;99.90;;;;;;6289704;22;20023;-73
2023/04/10 22:32:13;;;;;;;3.67;2.20;;;10.30;99.90;;;;;;6317195;22;20012;-73
2023/04/10 22:34:39;;;;;;;3.30;2.67;;;10.30;99.90;;;;;;6279504;22;20000;-74
2023/04/10 22:37:05;;;;;;;11.75;3.00;;;10.30;99.90;;;;;;6316529;22;20007;-73
2023/04/10 22:39:30;;;;;;;2.05;1.85;;;10.30;99.90;;;;;;6317023;22;19995;-73
2023/04/10 22:41:56;;;;;;;8.93;3.20;;;10.30;99.90;;;;;;6289252;22;19995;-73
2023/04/10 22:44:22;;;;;;;2.92;1.75;;;10.30;99.90;;;;;;6316496;22;19995;-73
2023/04/10 22:46:48;;;;;;;4.05;2.00;;;10.30;99.90;;;;;;6279003;22;20006;-73
2023/04/10 22:49:17;;;;;;;10.70;2.25;;;10.30;99.90;;;;;;6279198;22;20004;-73
2023/04/10 22:51:46;;;;;;;6.47;1.75;;;10.20;99.90;;;;;;6310003;22;20010;-73
2023/04/10 22:54:12;;;;;;;5.07;3.42;;;10.10;99.90;;;;;;6316595;22;20417;-74
2023/04/10 22:56:38;;;;;;;5.68;2.90;;;10.10;99.90;;;;;;6316339;22;20011;-73
2023/04/10 22:59:04;;;;;;;3.75;2.90;;;10.00;99.90;;;;;;6316832;22;19999;-74
2023/04/10 23:01:30;;;;;;;8.70;4.15;;;9.90;99.90;;;;;;6316073;22;20071;-73
2023/04/10 23:03:56;;;;;;;7.00;2.60;;;9.90;99.90;;;;;;6289179;22;20041;-73
2023/04/10 23:06:22;;;;;;;3.00;1.70;;;9.80;99.90;;;;;;6315853;22;20003;-73
2023/04/10 23:08:50;;;;;;;10.25;2.78;;;9.80;99.90;;;;;;6316660;22;19995;-73
2023/04/10 23:11:16;;;;;;;7.72;2.03;;;9.80;99.90;;;;;;6316151;22;20002;-73
2023/04/10 23:13:42;;;;;;;4.28;2.90;;;9.70;99.90;;;;;;6316594;22;20323;-73